createdAt,value
2023-02-11T00:01:33.561Z,52.45
2023-02-11T00:04:35.432Z,53.13
2023-02-11T00:07:37.404Z,53.17
2023-02-11T00:10:39.262Z,50.90
2023-02-11T00:13:41.538Z,50.32
2023-02-11T00:16:43.493Z,51.22
2023-02-11T00:19:45.512Z,50.72
2023-02-11T00:22:47.427Z,52.97
2023-02-11T00:25:49.592Z,51.99
2023-02-11T00:28:51.874Z,49.96
2023-02-11T00:31:53.856Z,52.22
2023-02-11T00:34:55.955Z,52.64
2023-02-11T00:37:57.849Z,52.56
2023-02-11T00:40:59.714Z,52.43
2023-02-11T00:44:02.367Z,52.12
2023-02-11T00:47:04.368Z,52.50
2023-02-11T00:50:06.488Z,52.48
2023-02-11T00:53:08.421Z,52.52
2023-02-11T00:56:10.535Z,52.05
2023-02-11T00:59:12.465Z,50.67
2023-02-11T01:02:14.521Z,52.67
2023-02-11T01:05:16.675Z,52.71
2023-02-11T01:08:18.724Z,52.34
2023-02-11T01:11:20.919Z,52.77
2023-02-11T01:14:22.884Z,52.34
2023-02-11T01:17:24.908Z,52.65
2023-02-11T01:20:27.971Z,52.03
2023-02-11T01:23:29.936Z,52.72
2023-02-11T01:26:31.902Z,50.94
2023-02-11T01:29:33.846Z,54.30
2023-02-11T01:32:35.844Z,53.84
2023-02-11T01:35:38.488Z,52.96
2023-02-11T01:38:41.470Z,54.44
2023-02-11T01:41:43.486Z,54.39
2023-02-11T01:44:45.429Z,54.93
2023-02-11T01:47:47.332Z,54.61
2023-02-11T01:50:50.044Z,54.48
2023-02-11T01:54:27.361Z,55.18
2023-02-11T01:57:29.946Z,55.11
2023-02-11T02:00:36.391Z,54.82
2023-02-11T02:03:38.892Z,55.95
2023-02-11T02:06:42.239Z,57.23
2023-02-11T02:09:45.339Z,57.83
2023-02-11T02:12:47.276Z,56.62
2023-02-11T02:15:52.717Z,55.66
2023-02-11T02:19:13.787Z,57.22
2023-02-11T02:22:34.272Z,57.42
2023-02-11T02:25:38.891Z,57.45
2023-02-11T02:28:40.803Z,54.09
2023-02-11T02:31:55.053Z,57.78
2023-02-11T02:34:59.986Z,59.72
2023-02-11T02:38:14.253Z,58.44
2023-02-11T02:41:17.158Z,55.86
2023-02-11T02:44:19.283Z,57.13
2023-02-11T02:47:21.273Z,58.49
2023-02-11T02:50:26.557Z,56.46
2023-02-11T02:53:55.001Z,57.01
2023-02-11T02:57:06.167Z,56.89
2023-02-11T03:00:26.688Z,58.45
2023-02-11T03:03:34.802Z,58.27
2023-02-11T03:06:36.625Z,59.00
2023-02-11T03:09:59.960Z,56.67
2023-02-11T03:13:02.468Z,55.07
2023-02-11T03:16:12.514Z,57.26
2023-02-11T03:19:16.090Z,54.68
2023-02-11T03:22:20.117Z,56.76
2023-02-11T03:25:22.436Z,57.40
2023-02-11T03:28:44.204Z,56.63
2023-02-11T03:31:49.525Z,56.71
2023-02-11T03:34:51.559Z,56.43
2023-02-11T03:38:04.674Z,56.95
2023-02-11T03:41:06.840Z,54.93
2023-02-11T03:44:08.702Z,57.19
2023-02-11T03:47:11.058Z,56.36
2023-02-11T03:50:13.301Z,56.85
2023-02-11T03:53:15.664Z,55.15
2023-02-11T03:56:18.284Z,55.82
2023-02-11T03:59:20.189Z,53.78
2023-02-11T04:02:26.029Z,54.92
2023-02-11T04:05:28.076Z,54.81
2023-02-11T04:08:31.779Z,53.90
2023-02-11T04:11:33.795Z,55.44
2023-02-11T04:14:35.796Z,55.42
2023-02-11T04:17:37.863Z,56.35
2023-02-11T04:20:39.659Z,56.40
2023-02-11T04:23:41.550Z,52.69
2023-02-11T04:26:44.485Z,51.12
2023-02-11T04:29:46.456Z,51.88
2023-02-11T04:32:48.359Z,51.39
2023-02-11T04:35:50.479Z,50.94
2023-02-11T04:38:52.523Z,50.86
2023-02-11T04:41:54.510Z,51.35
2023-02-11T04:44:56.564Z,51.82
2023-02-11T04:47:58.436Z,50.84
2023-02-11T04:51:00.567Z,51.95
2023-02-11T04:54:02.407Z,53.85
2023-02-11T04:57:04.429Z,52.09
2023-02-11T05:00:06.963Z,51.68
2023-02-11T05:03:09.018Z,52.75
2023-02-11T05:06:11.600Z,54.48
2023-02-11T05:09:13.883Z,55.71
2023-02-11T05:12:16.147Z,58.34
2023-02-11T05:15:18.109Z,56.93
2023-02-11T05:18:19.993Z,57.97
2023-02-11T05:21:22.224Z,58.66
2023-02-11T05:24:24.120Z,57.49
2023-02-11T05:27:26.075Z,58.64
2023-02-11T05:30:28.200Z,58.18
2023-02-11T05:33:30.256Z,59.19
2023-02-11T05:36:33.491Z,55.41
2023-02-11T05:39:35.440Z,58.90
2023-02-11T05:42:37.337Z,58.76
2023-02-11T05:45:39.269Z,59.30
2023-02-11T05:48:41.301Z,58.72
2023-02-11T05:51:43.184Z,56.54
2023-02-11T05:54:45.192Z,55.91
2023-02-11T05:57:47.355Z,57.46
2023-02-11T06:00:49.197Z,54.46
2023-02-11T06:03:51.544Z,57.23
2023-02-11T06:06:53.434Z,54.23
2023-02-11T06:09:55.355Z,52.45
2023-02-11T06:12:57.285Z,53.43
2023-02-11T06:15:59.726Z,54.25
2023-02-11T06:19:01.693Z,57.53
2023-02-11T06:22:03.897Z,53.81
2023-02-11T06:25:06.137Z,52.77
2023-02-11T06:28:08.654Z,52.35
2023-02-11T06:31:11.793Z,53.55
2023-02-11T06:34:13.941Z,52.31
2023-02-11T06:37:15.845Z,52.33
2023-02-11T06:40:17.869Z,52.57
2023-02-11T06:43:19.864Z,52.32
2023-02-11T06:46:21.867Z,49.64
2023-02-11T06:49:23.879Z,49.23
2023-02-11T06:52:25.806Z,48.78
2023-02-11T06:55:27.747Z,48.46
2023-02-11T06:58:29.633Z,46.31
2023-02-11T07:01:31.607Z,46.49
2023-02-11T07:04:35.913Z,47.12
2023-02-11T07:07:37.886Z,46.35
2023-02-11T07:10:40.033Z,46.69
2023-02-11T07:13:41.953Z,49.52
2023-02-11T07:16:43.854Z,50.29
2023-02-11T07:19:45.891Z,47.55
2023-02-11T07:22:47.774Z,48.14
2023-02-11T07:25:49.933Z,46.37
2023-02-11T07:28:52.421Z,48.86
2023-02-11T07:31:54.519Z,50.64
2023-02-11T07:34:56.694Z,48.69
2023-02-11T07:37:58.636Z,49.99
2023-02-11T07:41:01.545Z,49.53
2023-02-11T07:44:03.619Z,50.37
2023-02-11T07:47:05.709Z,50.71
2023-02-11T07:50:07.910Z,45.58
2023-02-11T07:53:10.685Z,46.99
2023-02-11T07:56:13.174Z,47.71
2023-02-11T07:59:15.116Z,48.10
2023-02-11T08:02:17.140Z,47.62
2023-02-11T08:05:19.136Z,45.26
2023-02-11T08:08:21.049Z,45.92
2023-02-11T08:11:26.485Z,44.41
2023-02-11T08:14:28.753Z,43.90
2023-02-11T08:17:30.590Z,42.90
2023-02-11T08:20:32.568Z,43.25
2023-02-11T08:23:36.116Z,45.41
2023-02-11T08:26:38.023Z,44.31
2023-02-11T08:29:40.079Z,42.31
2023-02-11T08:32:42.157Z,41.98
2023-02-11T08:35:44.222Z,44.52
2023-02-11T08:38:46.230Z,42.41
2023-02-11T08:41:49.139Z,41.79
2023-02-11T08:44:51.106Z,39.58
2023-02-11T08:47:53.016Z,39.48
2023-02-11T08:50:55.599Z,40.61
2023-02-11T08:53:58.086Z,41.25
2023-02-11T08:57:02.194Z,42.67
2023-02-11T09:00:04.460Z,40.74
2023-02-11T09:03:06.461Z,40.60
2023-02-11T09:06:09.676Z,40.73
2023-02-11T09:09:13.735Z,40.50
2023-02-11T09:12:15.720Z,40.44
2023-02-11T09:15:17.913Z,41.52
2023-02-11T09:18:19.821Z,38.45
2023-02-11T09:21:21.871Z,38.77
2023-02-11T09:24:23.785Z,38.03
2023-02-11T09:27:25.757Z,38.04
2023-02-11T09:30:27.700Z,36.84
2023-02-11T09:33:29.835Z,37.59
2023-02-11T09:36:37.523Z,36.24
2023-02-11T09:39:42.546Z,36.53
2023-02-11T09:43:04.245Z,35.01
2023-02-11T09:46:06.641Z,34.61
2023-02-11T09:49:10.973Z,36.87
2023-02-11T09:52:19.150Z,37.10
2023-02-11T09:55:22.103Z,36.14
2023-02-11T09:58:28.509Z,34.49
2023-02-11T10:01:41.059Z,33.96
2023-02-11T10:05:02.220Z,33.74
2023-02-11T10:08:16.923Z,33.76
2023-02-11T10:11:30.854Z,35.50
2023-02-11T10:14:39.581Z,34.88
2023-02-11T10:17:48.205Z,35.73
2023-02-11T10:21:05.669Z,34.99
2023-02-11T10:24:10.282Z,34.68
2023-02-11T10:27:15.608Z,36.02
2023-02-11T10:30:19.160Z,37.29
2023-02-11T10:33:23.648Z,35.08
2023-02-11T10:36:29.123Z,35.19
2023-02-11T10:39:31.951Z,36.80
2023-02-11T10:42:33.905Z,34.08
2023-02-11T10:45:39.809Z,32.67
2023-02-11T10:48:43.170Z,33.17
2023-02-11T10:51:45.228Z,32.60
2023-02-11T10:55:10.313Z,33.75
2023-02-11T10:58:19.883Z,32.93
2023-02-11T11:01:24.829Z,32.84
2023-02-11T11:04:30.447Z,30.52
2023-02-11T11:07:33.096Z,32.10
2023-02-11T11:10:35.759Z,30.12
2023-02-11T11:13:38.988Z,28.16
2023-02-11T11:16:40.824Z,25.27
2023-02-11T11:19:42.706Z,27.33
2023-02-11T11:22:45.702Z,25.47
2023-02-11T11:25:59.475Z,29.42
2023-02-11T11:29:02.159Z,31.91
2023-02-11T11:32:20.785Z,29.57
2023-02-11T11:35:27.742Z,30.35
2023-02-11T11:38:29.596Z,30.07
2023-02-11T11:41:33.100Z,32.23
2023-02-11T11:44:35.740Z,30.84
2023-02-11T11:47:46.940Z,31.95
2023-02-11T11:50:56.406Z,31.14
2023-02-11T11:54:03.376Z,28.03
2023-02-11T11:57:07.163Z,28.11
2023-02-11T12:00:16.967Z,28.54
2023-02-11T12:03:37.620Z,31.39
2023-02-11T12:06:58.424Z,31.95
2023-02-11T12:10:12.877Z,28.64
2023-02-11T12:13:18.412Z,28.80
2023-02-11T12:16:23.345Z,29.28
2023-02-11T12:19:34.313Z,29.25
2023-02-11T12:22:39.301Z,30.38
2023-02-11T12:25:47.351Z,31.96
2023-02-11T12:28:55.249Z,32.21
2023-02-11T12:32:20.574Z,32.50
2023-02-11T12:35:22.438Z,31.03
2023-02-11T12:38:47.287Z,31.78
2023-02-11T12:42:21.627Z,30.92
2023-02-11T12:45:29.784Z,29.26
2023-02-11T12:48:37.852Z,30.48
2023-02-11T12:51:45.934Z,31.77
2023-02-11T12:54:49.332Z,29.64
2023-02-11T12:57:51.721Z,29.61
2023-02-11T13:00:55.850Z,27.62
2023-02-11T13:04:01.302Z,28.29
2023-02-11T13:07:11.133Z,27.78
2023-02-11T13:10:22.845Z,27.35
2023-02-11T13:13:30.719Z,26.81
2023-02-11T13:16:45.811Z,24.96
2023-02-11T13:19:49.149Z,25.05
2023-02-11T13:22:57.432Z,26.79
2023-02-11T13:26:19.537Z,26.71
2023-02-11T13:29:21.383Z,28.64
2023-02-11T13:32:23.350Z,28.98
2023-02-11T13:35:29.356Z,27.07
2023-02-11T13:38:31.738Z,27.89
2023-02-11T13:41:44.282Z,28.05
2023-02-11T13:44:46.785Z,28.73
2023-02-11T13:47:52.594Z,28.79
2023-02-11T13:50:56.322Z,29.12
2023-02-11T13:53:58.250Z,30.08
2023-02-11T13:57:19.040Z,30.28
2023-02-11T14:00:36.283Z,30.82
2023-02-11T14:03:57.450Z,29.22
2023-02-11T14:07:39.771Z,29.70
2023-02-11T14:10:41.605Z,30.64
2023-02-11T14:13:49.401Z,31.09
2023-02-11T14:17:00.402Z,31.12
2023-02-11T14:20:04.660Z,31.01
2023-02-11T14:23:06.511Z,29.95
2023-02-11T14:26:19.857Z,27.91
2023-02-11T14:29:40.933Z,27.84
2023-02-11T14:32:55.100Z,27.74
2023-02-11T14:36:00.132Z,29.75
2023-02-11T14:39:08.041Z,29.35
2023-02-11T14:42:18.960Z,30.77
2023-02-11T14:45:25.129Z,30.17
2023-02-11T14:48:36.857Z,31.53
2023-02-11T14:51:39.340Z,32.42
2023-02-11T14:54:41.303Z,32.75
2023-02-11T14:57:45.036Z,32.00
2023-02-11T15:00:47.857Z,31.83
2023-02-11T15:03:49.921Z,31.89
2023-02-11T15:06:51.896Z,30.92
2023-02-11T15:09:53.851Z,31.33
2023-02-11T15:12:55.824Z,30.27
2023-02-11T15:16:02.405Z,29.93
2023-02-11T15:19:04.794Z,31.26
2023-02-11T15:22:07.690Z,31.58
2023-02-11T15:25:11.041Z,30.78
2023-02-11T15:28:22.432Z,32.36
2023-02-11T15:31:25.702Z,33.83
2023-02-11T15:34:27.858Z,33.29
2023-02-11T15:37:29.952Z,33.90
2023-02-11T15:40:33.173Z,33.86
2023-02-11T15:43:45.897Z,34.13
2023-02-11T15:46:47.938Z,33.65
2023-02-11T15:49:49.930Z,33.29
2023-02-11T15:52:52.343Z,33.28
2023-02-11T15:55:56.706Z,34.09
2023-02-11T15:59:02.472Z,33.26
2023-02-11T16:02:07.517Z,33.14
2023-02-11T16:05:09.679Z,33.66
2023-02-11T16:08:37.895Z,33.84
2023-02-11T16:11:45.872Z,34.85
2023-02-11T16:14:47.818Z,36.38
2023-02-11T16:17:49.735Z,34.94
2023-02-11T16:20:52.121Z,34.31
2023-02-11T16:23:54.801Z,36.17
2023-02-11T16:26:57.875Z,35.97
2023-02-11T16:29:59.760Z,36.14
2023-02-11T16:33:01.678Z,35.62
2023-02-11T16:36:10.338Z,36.56
2023-02-11T16:39:12.280Z,35.94
2023-02-11T16:42:14.184Z,35.54
2023-02-11T16:45:16.033Z,35.78
2023-02-11T16:48:18.741Z,35.73
2023-02-11T16:51:20.669Z,36.57
2023-02-11T16:54:22.731Z,37.11
2023-02-11T16:57:25.421Z,34.91
2023-02-11T17:00:28.293Z,35.56
2023-02-11T17:03:31.428Z,35.21
2023-02-11T17:06:34.503Z,35.66
2023-02-11T17:09:36.443Z,38.13
2023-02-11T17:12:38.369Z,36.09
2023-02-11T17:15:40.751Z,36.40
2023-02-11T17:18:42.761Z,35.52
2023-02-11T17:21:45.829Z,36.14
2023-02-11T17:24:47.890Z,36.78
2023-02-11T17:27:52.735Z,37.07
2023-02-11T17:30:55.423Z,36.75
2023-02-11T17:33:57.562Z,35.95
2023-02-11T17:37:00.412Z,35.74
2023-02-11T17:40:02.355Z,34.97
2023-02-11T17:43:04.436Z,35.09
2023-02-11T17:46:07.698Z,36.38
2023-02-11T17:49:10.730Z,37.28
2023-02-11T17:52:13.058Z,37.44
2023-02-11T17:55:15.188Z,37.31
2023-02-11T17:58:17.201Z,37.01
2023-02-11T18:01:19.788Z,37.18
2023-02-11T18:04:22.001Z,38.67
2023-02-11T18:07:24.052Z,38.18
2023-02-11T18:10:26.277Z,37.23
2023-02-11T18:13:28.530Z,36.23
2023-02-11T18:16:31.021Z,36.87
2023-02-11T18:19:35.413Z,36.28
2023-02-11T18:22:40.243Z,35.74
2023-02-11T18:25:42.465Z,37.57
2023-02-11T18:28:46.104Z,37.36
2023-02-11T18:31:48.362Z,36.50
2023-02-11T18:34:50.541Z,35.40
2023-02-11T18:37:52.681Z,37.32
2023-02-11T18:40:56.963Z,38.47
2023-02-11T18:43:59.182Z,39.47
2023-02-11T18:47:01.229Z,37.41
2023-02-11T18:50:04.051Z,38.08
2023-02-11T18:53:05.974Z,36.84
2023-02-11T18:56:12.249Z,38.32
2023-02-11T18:59:14.533Z,38.33
2023-02-11T19:02:17.348Z,38.10
2023-02-11T19:05:19.449Z,37.97
2023-02-11T19:08:21.730Z,38.05
2023-02-11T19:11:43.709Z,37.50
2023-02-11T19:14:45.827Z,36.90
2023-02-11T19:17:48.053Z,37.26
2023-02-11T19:20:50.146Z,37.06
2023-02-11T19:23:52.529Z,36.42
2023-02-11T19:26:56.417Z,38.16
2023-02-11T19:29:58.723Z,35.95
2023-02-11T19:33:00.960Z,36.33
2023-02-11T19:36:06.961Z,35.84
2023-02-11T19:39:09.184Z,37.52
2023-02-11T19:42:11.696Z,36.43
2023-02-11T19:45:13.822Z,37.55
2023-02-11T19:48:15.737Z,37.22
2023-02-11T19:51:17.904Z,37.47
2023-02-11T19:54:20.361Z,36.85
2023-02-11T19:57:22.273Z,38.46
2023-02-11T20:00:24.124Z,40.40
2023-02-11T20:03:26.250Z,42.12
2023-02-11T20:06:29.297Z,40.96
2023-02-11T20:09:31.920Z,40.09
2023-02-11T20:12:33.824Z,40.60
2023-02-11T20:15:36.810Z,40.46
2023-02-11T20:18:39.224Z,40.88
2023-02-11T20:21:41.122Z,41.00
2023-02-11T20:24:43.092Z,41.58
2023-02-11T20:27:45.079Z,41.99
2023-02-11T20:30:54.935Z,43.99
2023-02-11T20:33:57.425Z,43.88
2023-02-11T20:36:59.594Z,43.07
2023-02-11T20:40:01.464Z,43.33
2023-02-11T20:43:03.389Z,42.84
2023-02-11T20:46:05.967Z,42.77
2023-02-11T20:49:08.877Z,41.02
2023-02-11T20:52:10.837Z,41.98
2023-02-11T20:55:13.102Z,43.80
2023-02-11T20:58:14.973Z,45.44
2023-02-11T21:01:19.844Z,46.92
2023-02-11T21:04:26.205Z,48.43
2023-02-11T21:07:29.452Z,47.61
2023-02-11T21:10:31.324Z,47.96
2023-02-11T21:13:34.486Z,47.78
2023-02-11T21:16:36.511Z,47.24
2023-02-11T21:19:38.702Z,50.77
2023-02-11T21:22:40.669Z,52.00
2023-02-11T21:25:42.774Z,53.16
2023-02-11T21:28:44.826Z,54.35
2023-02-11T21:31:47.159Z,52.41
2023-02-11T21:34:49.272Z,52.93
2023-02-11T21:37:51.244Z,51.62
2023-02-11T21:40:53.224Z,53.35
2023-02-11T21:43:55.147Z,54.80
2023-02-11T21:46:57.071Z,53.30
2023-02-11T21:49:59.417Z,54.80
2023-02-11T21:53:01.382Z,53.31
2023-02-11T21:56:04.172Z,56.38
2023-02-11T21:59:06.018Z,55.22
2023-02-11T22:02:09.098Z,55.06
2023-02-11T22:05:10.986Z,55.72
2023-02-11T22:08:12.930Z,56.09
2023-02-11T22:11:15.122Z,58.03
2023-02-11T22:14:17.197Z,58.05
2023-02-11T22:17:19.169Z,57.35
2023-02-11T22:20:21.069Z,58.42
2023-02-11T22:23:22.942Z,57.09
2023-02-11T22:26:25.931Z,58.19
2023-02-11T22:29:27.832Z,58.75
2023-02-11T22:32:29.692Z,59.18
2023-02-11T22:35:31.891Z,58.11
2023-02-11T22:38:35.267Z,59.76
2023-02-11T22:41:38.513Z,59.88
2023-02-11T22:44:40.402Z,59.84
2023-02-11T22:47:42.280Z,61.27
2023-02-11T22:50:44.291Z,60.86
2023-02-11T22:54:05.449Z,60.75
2023-02-11T22:57:07.295Z,59.48
2023-02-11T23:00:09.900Z,61.47
2023-02-11T23:03:11.809Z,61.65
2023-02-11T23:06:13.872Z,59.74
2023-02-11T23:09:15.837Z,60.90
2023-02-11T23:12:18.253Z,62.35
2023-02-11T23:15:20.193Z,61.77
2023-02-11T23:18:22.103Z,60.75
2023-02-11T23:21:25.199Z,59.99
2023-02-11T23:24:27.089Z,60.61
2023-02-11T23:27:28.985Z,60.74
2023-02-11T23:30:30.845Z,60.19
2023-02-11T23:33:32.748Z,60.82
2023-02-11T23:36:36.991Z,62.07
2023-02-11T23:39:41.388Z,64.04
2023-02-11T23:42:43.368Z,64.34
2023-02-11T23:45:45.413Z,62.57
2023-02-11T23:48:47.582Z,62.23
2023-02-11T23:51:49.469Z,64.20
2023-02-11T23:54:51.368Z,63.42
2023-02-11T23:57:53.212Z,63.06
